< < Back
Terminal Aerodrome Forecast


Current Version              Previous Versions:   1  2  3  4  5  6  7  8  9  

Terminal Aerodrome Forecast

226
FTUS42 KMLB 290525
TAFDAB
TAF
KDAB 290525Z 2906/3006 05005KT P6SM SCT040
     FM291400 06010KT P6SM SCT040
     FM291800 06013KT P6SM SCT040
     FM300100 07004KT P6SM SCT035=



Latest METAR

771
SAUS80 KWBC 291400
MTRDAB
METAR KDAB 291353Z 08010KT 10SM FEW035 FEW250 27/18 A3013 RMK AO2 SLP202
T02670178


USA.gov is the U.S. government's official web portal to all federal, state and local government web resources and services.